Time;durP1;ratioP1;P1;durP2;ratioP2;P2;SDS_P1;SDS_P2;PMS_P1;PMS_P2;Temp;Humidity;BMP_temperature;BMP_pressure;BME280_temperature;BME280_humidity;BME280_pressure;Samples;Min_cycle;Max_cycle;Signal;HPM_P1;HPM_P2
2023/09/11 00:02:11;;;;;;;4.55;3.20;;;15.90;96.20;15.90;100644.00;;;;4989175;28;115988;-65
2023/09/11 00:04:37;;;;;;;5.60;3.60;;;15.90;96.40;15.90;100642.00;;;;4987950;27;109001;-66
2023/09/11 00:07:03;;;;;;;5.88;3.33;;;15.80;96.50;15.80;100629.00;;;;4989636;28;108846;-65
2023/09/11 00:09:28;;;;;;;3.85;3.50;;;15.80;96.80;15.80;100634.00;;;;4990757;28;99124;-65
2023/09/11 00:11:54;;;;;;;6.55;4.15;;;15.70;97.10;15.70;100634.00;;;;4989613;27;87851;-65
2023/09/11 00:14:20;;;;;;;6.03;3.63;;;15.60;97.20;15.60;100631.00;;;;4988437;27;110996;-65
2023/09/11 00:16:45;;;;;;;4.70;3.47;;;15.70;97.40;15.50;100621.00;;;;4988438;28;108579;-65
2023/09/11 00:19:12;;;;;;;4.30;3.80;;;15.50;97.50;15.50;100626.00;;;;4990302;27;116900;-65
2023/09/11 00:21:38;;;;;;;8.35;3.90;;;15.50;97.60;15.50;100626.00;;;;4995181;28;88882;-65
2023/09/11 00:24:04;;;;;;;4.40;2.78;;;15.40;97.80;15.40;100631.00;;;;4990039;28;95620;-65
2023/09/11 00:26:30;;;;;;;4.70;2.97;;;15.40;97.90;15.40;100618.00;;;;4988948;27;87888;-65
2023/09/11 00:28:55;;;;;;;3.90;2.85;;;15.40;98.10;15.40;100623.00;;;;4988335;27;99389;-65
2023/09/11 00:31:21;;;;;;;4.07;3.53;;;15.30;98.30;15.30;100622.00;;;;4988711;28;118117;-65
2023/09/11 00:33:47;;;;;;;5.85;3.28;;;15.30;98.40;15.30;100624.00;;;;4987286;28;87925;-64
2023/09/11 00:36:13;;;;;;;5.18;3.35;;;15.30;98.50;15.30;100628.00;;;;4989925;27;90144;-64
2023/09/11 00:38:38;;;;;;;4.65;3.45;;;15.20;98.60;15.30;100628.00;;;;4989577;27;117664;-65
2023/09/11 00:41:04;;;;;;;6.10;4.57;;;15.20;98.80;15.20;100621.00;;;;4989897;27;88437;-65
2023/09/11 00:43:30;;;;;;;3.50;3.20;;;15.20;98.90;15.20;100624.00;;;;4989459;28;110774;-66
2023/09/11 00:45:57;;;;;;;5.53;3.90;;;15.20;99.00;15.20;100618.00;;;;4990502;28;103616;-65
2023/09/11 00:48:23;;;;;;;5.43;3.67;;;15.20;99.10;15.20;100621.00;;;;4969801;28;101240;-64
2023/09/11 00:50:50;;;;;;;3.80;3.00;;;15.10;99.10;15.10;100610.00;;;;4989696;27;88269;-65
2023/09/11 00:53:18;;;;;;;4.75;2.88;;;15.10;99.30;15.10;100614.00;;;;4991668;27;89122;-65
2023/09/11 00:55:45;;;;;;;4.47;4.03;;;15.10;99.40;15.10;100613.00;;;;4970070;28;104727;-64
2023/09/11 00:58:15;;;;;;;5.85;3.70;;;15.00;99.50;15.00;100609.00;;;;4987858;28;88848;-65
2023/09/11 01:00:41;;;;;;;4.63;2.78;;;15.00;99.70;15.00;100602.00;;;;4992531;28;89310;-65
2023/09/11 01:03:07;;;;;;;3.92;3.50;;;15.00;99.80;15.00;100604.00;;;;4989710;27;89377;-65
2023/09/11 01:05:36;;;;;;;7.47;3.70;;;14.90;99.90;15.00;100606.00;;;;4990754;28;107752;-64
2023/09/11 01:08:02;;;;;;;6.88;3.72;;;14.90;99.90;14.90;100599.00;;;;4990784;28;88498;-64
2023/09/11 01:10:27;;;;;;;5.18;4.05;;;14.90;99.90;14.90;100598.00;;;;4992953;28;117422;-65
2023/09/11 01:12:53;;;;;;;4.20;2.97;;;14.80;99.90;14.80;100601.00;;;;4989644;28;87699;-66
2023/09/11 01:15:19;;;;;;;3.65;3.35;;;14.70;99.90;14.80;100596.00;;;;4971336;28;108440;-66
2023/09/11 01:18:08;;;;;;;4.03;3.15;;;14.80;99.90;14.70;100598.00;;;;4988045;28;118290;-66
2023/09/11 01:20:44;;;;;;;4.70;3.40;;;14.70;99.90;14.70;100598.00;;;;4970370;28;108758;-66
2023/09/11 01:23:51;;;;;;;4.38;3.17;;;14.60;99.90;14.60;100599.00;;;;4971585;28;88275;-65
2023/09/11 01:26:55;;;;;;;6.43;3.95;;;14.60;99.90;14.60;100599.00;;;;4992332;27;87795;-65
2023/09/11 01:29:26;;;;;;;3.72;3.08;;;14.60;99.90;14.60;100598.00;;;;4977740;28;88632;-65
2023/09/11 01:31:54;;;;;;;6.15;3.38;;;14.60;99.90;14.60;100599.00;;;;4996949;27;88573;-66
2023/09/11 01:34:20;;;;;;;5.07;4.18;;;14.60;99.90;14.60;100598.00;;;;4979880;28;101499;-66
2023/09/11 01:36:45;;;;;;;4.88;2.97;;;14.60;99.90;14.60;100587.00;;;;4997632;27;89849;-67
2023/09/11 01:39:11;;;;;;;3.53;3.03;;;14.50;99.90;14.60;100593.00;;;;4992883;27;115352;-65
2023/09/11 01:41:44;;;;;;;4.85;3.20;;;14.50;99.90;14.50;100582.00;;;;4978348;27;88054;-66
2023/09/11 01:44:18;;;;;;;4.22;3.50;;;14.50;99.90;14.50;100583.00;;;;4991274;27;90803;-65
2023/09/11 01:46:47;;;;;;;3.70;3.35;;;14.40;99.90;14.40;100589.00;;;;4975044;27;88096;-65
2023/09/11 01:49:15;;;;;;;3.50;3.20;;;14.40;99.90;14.40;100579.00;;;;4971627;28;88484;-64
2023/09/11 01:51:41;;;;;;;4.68;3.97;;;14.40;99.90;14.40;100579.00;;;;4993334;27;116377;-66
2023/09/11 01:54:08;;;;;;;5.97;3.07;;;14.30;99.90;14.40;100586.00;;;;4992698;27;89042;-65
2023/09/11 01:56:35;;;;;;;3.33;3.03;;;14.30;99.90;14.40;100576.00;;;;4990551;27;87960;-65
2023/09/11 01:59:02;;;;;;;6.20;3.63;;;14.30;99.90;14.30;100576.00;;;;4996392;27;117355;-64
2023/09/11 02:01:27;;;;;;;4.20;3.70;;;14.30;99.90;14.30;100567.00;;;;4994918;27;87694;-64
2023/09/11 02:03:53;;;;;;;3.40;3.10;;;14.30;99.90;14.30;100575.00;;;;4994765;27;107963;-65
2023/09/11 02:06:19;;;;;;;3.00;2.70;;;14.20;99.90;14.30;100566.00;;;;4993464;27;108924;-66
2023/09/11 02:08:44;;;;;;;5.15;3.33;;;14.20;99.90;14.20;100568.00;;;;4993872;27;117770;-65
2023/09/11 02:11:10;;;;;;;4.45;3.40;;;14.20;99.90;14.20;100575.00;;;;4991216;27;119054;-66
2023/09/11 02:13:36;;;;;;;3.95;2.92;;;14.20;99.90;14.20;100567.00;;;;4995928;27;87872;-65
2023/09/11 02:16:03;;;;;;;3.30;2.97;;;14.20;99.90;14.10;100569.00;;;;4988758;28;107002;-65
2023/09/11 02:18:28;;;;;;;5.38;3.72;;;14.10;99.90;14.10;100564.00;;;;4995953;27;93425;-67
2023/09/11 02:20:54;;;;;;;5.33;3.63;;;14.10;99.90;14.10;100563.00;;;;4977852;27;115617;-65
2023/09/11 02:23:20;;;;;;;3.43;3.13;;;14.10;99.90;14.10;100565.00;;;;4994546;27;110383;-65
2023/09/11 02:25:48;;;;;;;4.50;3.37;;;14.00;99.90;14.10;100564.00;;;;4991344;28;87489;-65
2023/09/11 02:28:16;;;;;;;5.03;3.43;;;14.00;99.90;14.00;100558.00;;;;4992257;27;89248;-65
2023/09/11 02:30:42;;;;;;;4.75;3.35;;;14.00;99.90;14.00;100556.00;;;;4992595;27;116021;-65
2023/09/11 02:33:07;;;;;;;3.55;3.25;;;14.00;99.90;14.00;100560.00;;;;4992915;27;88819;-65
2023/09/11 02:35:33;;;;;;;3.97;3.57;;;14.00;99.90;13.90;100556.00;;;;4991275;27;109571;-66
2023/09/11 02:37:59;;;;;;;6.80;4.00;;;13.90;99.90;13.90;100558.00;;;;4992361;27;88086;-66
2023/09/11 02:40:25;;;;;;;4.20;3.03;;;13.90;99.90;13.90;100551.00;;;;4991349;28;90034;-66
2023/09/11 02:42:50;;;;;;;3.97;3.57;;;13.80;99.90;13.80;100555.00;;;;4994943;28;100165;-67
2023/09/11 02:45:16;;;;;;;3.57;2.90;;;13.80;99.90;13.80;100564.00;;;;4990186;27;108825;-66
2023/09/11 02:47:41;;;;;;;5.73;3.70;;;13.80;99.90;13.80;100555.00;;;;4993552;27;117912;-65
2023/09/11 02:50:08;;;;;;;4.53;3.73;;;13.70;99.90;13.70;100555.00;;;;4993117;27;117357;-65
2023/09/11 02:52:33;;;;;;;4.88;3.53;;;13.70;99.90;13.70;100547.00;;;;4997102;28;100144;-65
2023/09/11 02:54:59;;;;;;;4.23;3.27;;;13.70;99.90;13.70;100553.00;;;;4989791;28;109142;-65
2023/09/11 02:57:25;;;;;;;4.93;3.83;;;13.70;99.90;13.70;100547.00;;;;4992013;27;117087;-65
2023/09/11 02:59:55;;;;;;;4.93;3.63;;;13.60;99.90;13.60;100551.00;;;;4991335;27;116529;-65
2023/09/11 03:02:21;;;;;;;6.57;3.90;;;13.60;99.90;13.60;100546.00;;;;4991599;27;87883;-65
2023/09/11 03:04:51;;;;;;;7.70;3.77;;;13.60;99.90;13.60;100548.00;;;;4991294;27;88037;-65
2023/09/11 03:07:20;;;;;;;3.90;3.50;;;13.60;99.90;13.60;100546.00;;;;4990022;28;88776;-65
2023/09/11 03:09:46;;;;;;;3.77;2.77;;;13.50;99.90;13.50;100546.00;;;;4994488;27;88474;-65
2023/09/11 03:12:12;;;;;;;5.40;3.97;;;13.50;99.90;13.50;100559.00;;;;4994313;27;101600;-65
2023/09/11 03:14:39;;;;;;;4.80;3.23;;;13.50;99.90;13.50;100546.00;;;;4991037;27;87190;-66
2023/09/11 03:17:05;;;;;;;4.57;3.53;;;13.50;99.90;13.50;100541.00;;;;4988148;28;99838;-66
2023/09/11 03:19:34;;;;;;;3.67;3.17;;;13.50;99.90;13.50;100544.00;;;;4992790;28;117277;-66
2023/09/11 03:22:00;;;;;;;5.60;3.63;;;13.50;99.90;13.50;100540.00;;;;4990998;28;88878;-66
2023/09/11 03:24:25;;;;;;;4.13;3.30;;;13.50;99.90;13.50;100540.00;;;;4995614;28;102998;-66
2023/09/11 03:26:51;;;;;;;5.23;3.47;;;13.40;99.90;13.40;100533.00;;;;4994838;27;117651;-65
2023/09/11 03:29:17;;;;;;;4.70;2.97;;;13.40;99.90;13.40;100533.00;;;;4989103;27;116782;-66
2023/09/11 03:31:43;;;;;;;4.57;4.17;;;13.40;99.90;13.40;100533.00;;;;4992319;28;87925;-65
2023/09/11 03:34:09;;;;;;;4.40;3.50;;;13.40;99.90;13.40;100533.00;;;;4989254;27;96858;-66
2023/09/11 03:36:34;;;;;;;6.53;3.60;;;13.30;99.90;13.30;100525.00;;;;4990949;27;116391;-65
2023/09/11 03:39:00;;;;;;;5.67;3.80;;;13.30;99.90;13.30;100531.00;;;;4995556;28;118281;-65
2023/09/11 03:41:25;;;;;;;7.73;3.83;;;13.30;99.90;13.30;100535.00;;;;4991292;27;110678;-66
2023/09/11 03:43:51;;;;;;;4.53;3.10;;;13.30;99.90;13.30;100524.00;;;;4991109;28;87788;-66
2023/09/11 03:46:17;;;;;;;4.00;3.50;;;13.30;99.90;13.30;100529.00;;;;4990193;28;118033;-67
2023/09/11 03:48:43;;;;;;;5.03;3.43;;;13.30;99.90;13.30;100533.00;;;;4989339;27;113689;-65
2023/09/11 03:51:08;;;;;;;4.43;3.83;;;13.20;99.90;13.30;100532.00;;;;4988667;28;110532;-66
2023/09/11 03:53:34;;;;;;;6.57;4.13;;;13.30;99.90;13.20;100527.00;;;;4988207;28;107450;-65
2023/09/11 03:56:01;;;;;;;5.97;4.00;;;13.20;99.90;13.20;100525.00;;;;4989080;27;89012;-66
2023/09/11 03:58:27;;;;;;;6.47;3.63;;;13.20;99.90;13.20;100526.00;;;;4990838;27;87966;-65
2023/09/11 04:00:54;;;;;;;6.03;3.90;;;13.20;99.90;13.10;100523.00;;;;4991661;27;109841;-65
2023/09/11 04:03:20;;;;;;;4.30;3.50;;;13.10;99.90;13.10;100531.00;;;;4996970;27;87164;-65
2023/09/11 04:05:45;;;;;;;7.47;4.10;;;13.10;99.90;13.10;100522.00;;;;4998203;27;88155;-66
2023/09/11 04:08:11;;;;;;;4.07;3.23;;;13.10;99.90;13.10;100522.00;;;;4993396;27;116081;-66
2023/09/11 04:10:37;;;;;;;5.40;3.87;;;13.10;99.90;13.10;100527.00;;;;4978039;28;108857;-66
2023/09/11 04:13:02;;;;;;;8.57;4.27;;;13.10;99.90;13.00;100524.00;;;;4992349;27;88350;-66
2023/09/11 04:15:28;;;;;;;5.63;4.63;;;13.00;99.90;13.00;100524.00;;;;4989951;27;106322;-64
2023/09/11 04:17:55;;;;;;;6.67;3.63;;;13.00;99.90;13.00;100518.00;;;;4992914;27;87958;-65
2023/09/11 04:20:21;;;;;;;3.23;2.93;;;13.00;99.90;13.00;100515.00;;;;4977708;28;87816;-66
2023/09/11 04:22:47;;;;;;;6.30;4.20;;;13.00;99.90;13.00;100518.00;;;;4991406;27;88562;-66
2023/09/11 04:25:13;;;;;;;4.57;3.20;;;13.00;99.90;12.90;100523.00;;;;4989671;27;116887;-65
2023/09/11 04:27:38;;;;;;;4.47;3.60;;;13.40;99.90;12.90;100517.00;;;;4992512;27;91288;-64
2023/09/11 04:30:05;;;;;;;6.00;4.67;;;12.90;99.90;12.80;100516.00;;;;4988971;27;110130;-66
2023/09/11 04:32:30;;;;;;;4.90;3.47;;;12.90;99.90;12.80;100520.00;;;;4990754;27;100994;-65
2023/09/11 04:34:56;;;;;;;9.07;4.53;;;12.80;99.90;12.80;100520.00;;;;4988721;27;117665;-65
2023/09/11 04:37:22;;;;;;;7.37;4.60;;;12.80;99.90;12.70;100513.00;;;;4992334;28;88927;-65
2023/09/11 04:39:48;;;;;;;4.93;3.77;;;12.80;99.90;12.70;100517.00;;;;4992948;27;107729;-66
2023/09/11 04:42:14;;;;;;;5.13;3.80;;;12.70;99.90;12.70;100520.00;;;;4989573;28;87628;-65
2023/09/11 04:44:40;;;;;;;4.20;3.37;;;12.70;99.90;12.70;100525.00;;;;4992100;28;106267;-66
2023/09/11 04:47:06;;;;;;;5.47;4.53;;;12.70;99.90;12.70;100522.00;;;;4989914;28;89096;-65
2023/09/11 04:49:32;;;;;;;4.60;3.30;;;12.70;99.90;12.70;100522.00;;;;4991907;28;88140;-65
2023/09/11 04:51:58;;;;;;;4.53;3.90;;;12.70;99.90;12.70;100518.00;;;;4993289;27;87285;-66
2023/09/11 04:54:23;;;;;;;5.40;3.57;;;12.70;99.90;12.70;100519.00;;;;4986983;27;116746;-65
2023/09/11 04:56:49;;;;;;;8.10;4.43;;;12.70;99.90;12.80;100515.00;;;;4990740;27;116840;-66
2023/09/11 04:59:15;;;;;;;5.33;4.20;;;12.80;99.90;12.80;100524.00;;;;4990119;27;110008;-65
2023/09/11 05:01:40;;;;;;;4.27;3.43;;;12.80;99.90;12.90;100516.00;;;;4990969;27;87806;-66
2023/09/11 05:04:06;;;;;;;5.43;3.53;;;12.90;99.90;12.90;100510.00;;;;4997532;27;88978;-67
2023/09/11 05:06:32;;;;;;;4.40;3.33;;;12.90;99.90;13.00;100507.00;;;;4998282;27;88273;-65
2023/09/11 05:08:58;;;;;;;5.73;4.00;;;12.90;99.90;13.10;100511.00;;;;4993470;27;110193;-65
2023/09/11 05:11:24;;;;;;;4.97;3.80;;;13.00;99.90;13.20;100509.00;;;;4997893;27;88021;-66
2023/09/11 05:13:50;;;;;;;3.87;3.47;;;13.10;99.90;13.30;100508.00;;;;4991242;27;117837;-65
2023/09/11 05:16:17;;;;;;;4.50;3.17;;;13.20;99.90;13.40;100515.00;;;;4992207;27;118970;-65
2023/09/11 05:18:43;;;;;;;4.60;3.50;;;13.30;99.90;13.50;100520.00;;;;4988894;27;88035;-66
2023/09/11 05:21:08;;;;;;;4.03;3.63;;;13.40;99.90;13.70;100520.00;;;;4989065;28;107597;-66
2023/09/11 05:23:34;;;;;;;4.80;3.97;;;13.60;99.90;13.80;100520.00;;;;4980683;27;116579;-65
2023/09/11 05:26:00;;;;;;;8.57;4.80;;;13.70;99.90;13.90;100524.00;;;;4987741;28;118287;-65
2023/09/11 05:28:25;;;;;;;16.93;6.80;;;13.80;99.90;14.10;100528.00;;;;4990794;28;87961;-66
2023/09/11 05:30:52;;;;;;;10.93;4.40;;;14.00;99.90;14.20;100523.00;;;;4990267;27;88562;-66
2023/09/11 05:33:18;;;;;;;7.97;4.70;;;14.10;99.90;14.30;100529.00;;;;4985307;28;115482;-66
2023/09/11 05:35:45;;;;;;;8.80;3.90;;;14.20;99.90;14.50;100529.00;;;;4986601;27;116387;-66
2023/09/11 05:38:11;;;;;;;5.30;4.40;;;14.40;99.90;14.70;100540.00;;;;4991250;28;88903;-65
2023/09/11 05:40:37;;;;;;;6.87;4.63;;;14.60;99.90;14.90;100533.00;;;;4989324;28;87037;-65
2023/09/11 05:43:03;;;;;;;4.87;4.30;;;14.70;99.90;15.10;100521.00;;;;4991247;28;117732;-65
2023/09/11 05:45:28;;;;;;;5.93;4.10;;;14.90;99.90;15.30;100530.00;;;;4995305;28;88370;-65
2023/09/11 05:47:54;;;;;;;7.18;4.05;;;15.10;99.90;15.50;100532.00;;;;4993074;28;111661;-65
2023/09/11 05:50:20;;;;;;;9.38;4.40;;;15.40;99.90;15.80;100526.00;;;;4993075;28;108238;-65
2023/09/11 05:52:45;;;;;;;12.45;5.32;;;15.60;99.90;16.00;100528.00;;;;4991593;28;89307;-65
2023/09/11 05:55:11;;;;;;;8.07;3.53;;;15.80;99.90;16.30;100532.00;;;;4995402;27;88576;-65
2023/09/11 05:57:37;;;;;;;5.70;4.00;;;16.10;99.90;16.50;100535.00;;;;4989755;28;87932;-65
2023/09/11 06:00:12;;;;;;;4.88;4.07;;;16.30;99.90;16.80;100537.00;;;;4992763;27;108872;-66
2023/09/11 06:02:40;;;;;;;6.60;3.70;;;16.60;99.90;17.10;100533.00;;;;4994356;27;88302;-66
2023/09/11 06:05:07;;;;;;;5.35;4.13;;;16.80;99.90;17.40;100546.00;;;;4990522;27;88687;-66
2023/09/11 06:07:33;;;;;;;8.57;4.85;;;17.10;99.90;17.60;100545.00;;;;4997579;27;88085;-66
2023/09/11 06:09:58;;;;;;;5.45;3.78;;;17.40;99.90;17.80;100548.00;;;;4995376;27;107080;-65
2023/09/11 06:12:29;;;;;;;3.97;3.38;;;17.60;99.90;18.10;100535.00;;;;4996010;28;117639;-65
2023/09/11 06:14:55;;;;;;;13.88;4.45;;;17.90;99.90;18.40;100545.00;;;;4999576;28;89411;-66
2023/09/11 06:17:20;;;;;;;5.35;3.95;;;18.10;99.90;18.70;100545.00;;;;4997461;27;87790;-65
2023/09/11 06:19:46;;;;;;;7.50;4.68;;;18.40;99.90;19.00;100543.00;;;;4994951;27;88154;-66
2023/09/11 06:22:12;;;;;;;6.07;4.28;;;18.70;99.90;19.30;100544.00;;;;4989579;27;118033;-65
2023/09/11 06:24:38;;;;;;;4.90;4.13;;;19.00;99.90;19.60;100544.00;;;;4997539;27;88584;-64
2023/09/11 06:27:07;;;;;;;5.15;3.67;;;19.30;99.90;20.00;100542.00;;;;4994008;28;110426;-65
2023/09/11 06:29:33;;;;;;;5.72;3.85;;;19.70;99.90;20.30;100545.00;;;;4995527;27;87299;-65
2023/09/11 06:31:59;;;;;;;7.07;3.83;;;20.00;99.90;20.60;100537.00;;;;5001274;27;88171;-65
2023/09/11 06:34:25;;;;;;;8.18;3.85;;;20.30;99.90;20.90;100541.00;;;;4996305;27;105471;-66
2023/09/11 06:36:52;;;;;;;5.45;4.20;;;20.60;99.90;21.20;100548.00;;;;4993425;27;88625;-66
2023/09/11 06:39:19;;;;;;;5.60;3.92;;;20.90;99.90;21.40;100535.00;;;;4998176;28;87729;-64
2023/09/11 06:41:45;;;;;;;8.30;5.35;;;21.20;99.90;21.70;100541.00;;;;4997247;27;89051;-65
2023/09/11 06:44:11;;;;;;;6.82;4.28;;;21.40;99.90;22.00;100544.00;;;;4999666;27;107882;-65
2023/09/11 06:46:36;;;;;;;5.30;4.30;;;21.70;99.40;22.30;100542.00;;;;4997195;28;109516;-65
2023/09/11 06:49:03;;;;;;;8.55;4.80;;;22.00;98.80;22.50;100531.00;;;;4997458;27;107537;-66
2023/09/11 06:51:29;;;;;;;5.95;4.07;;;22.30;98.00;22.70;100536.00;;;;5000173;27;87790;-65
2023/09/11 06:53:54;;;;;;;5.43;4.22;;;22.50;97.40;22.90;100540.00;;;;4995277;27;117821;-65
2023/09/11 06:56:26;;;;;;;4.25;3.85;;;22.70;96.80;23.00;100541.00;;;;4995704;27;87914;-65
2023/09/11 06:58:52;;;;;;;7.63;3.58;;;22.80;96.30;23.20;100543.00;;;;5002854;27;108975;-64
2023/09/11 07:01:17;;;;;;;5.20;3.60;;;22.90;95.80;23.30;100543.00;;;;4997503;27;117583;-65
2023/09/11 07:03:46;;;;;;;3.95;3.45;;;23.10;95.50;23.60;100540.00;;;;4992019;27;116864;-65
2023/09/11 07:06:12;;;;;;;4.07;2.97;;;23.30;94.90;23.70;100540.00;;;;4991750;28;89075;-64
2023/09/11 07:08:38;;;;;;;5.13;3.53;;;23.50;94.40;23.90;100548.00;;;;4994386;28;87874;-65
2023/09/11 07:11:03;;;;;;;5.47;3.65;;;23.70;93.90;24.10;100554.00;;;;4983932;28;119403;-65
2023/09/11 07:13:29;;;;;;;5.55;3.03;;;23.80;93.50;24.30;100542.00;;;;4993699;27;116279;-66
2023/09/11 07:15:59;;;;;;;6.40;3.67;;;24.10;93.20;24.50;100552.00;;;;4994822;27;109364;-64
2023/09/11 07:18:26;;;;;;;8.43;3.45;;;24.30;92.60;24.80;100549.00;;;;4993090;27;87206;-65
2023/09/11 07:20:52;;;;;;;4.68;2.95;;;24.50;92.10;25.10;100547.00;;;;4994985;27;88841;-66
2023/09/11 07:23:20;;;;;;;3.90;3.50;;;24.80;91.60;25.30;100547.00;;;;4992510;27;88473;-66
2023/09/11 07:25:46;;;;;;;5.80;3.25;;;25.00;90.90;25.50;100552.00;;;;4992381;28;89102;-66
2023/09/11 07:28:15;;;;;;;3.63;3.33;;;25.30;90.50;25.80;100552.00;;;;4992280;27;88100;-66
2023/09/11 07:30:43;;;;;;;5.75;3.38;;;25.50;90.10;26.10;100554.00;;;;4976490;28;117578;-66
2023/09/11 07:33:09;;;;;;;4.07;3.05;;;25.80;89.40;26.40;100555.00;;;;4995524;27;89443;-67
2023/09/11 07:35:34;;;;;;;3.42;2.60;;;26.10;88.10;26.80;100559.00;;;;4993013;27;108715;-66
2023/09/11 07:38:00;;;;;;;3.63;2.35;;;26.50;87.00;27.20;100554.00;;;;4992097;27;109317;-67
2023/09/11 07:40:26;;;;;;;3.25;2.75;;;26.90;85.80;27.60;100555.00;;;;4993125;27;112375;-66
2023/09/11 07:42:54;;;;;;;4.25;3.05;;;27.20;84.00;27.90;100551.00;;;;4993443;27;116836;-68
2023/09/11 07:45:21;;;;;;;4.50;3.03;;;27.60;82.10;28.20;100555.00;;;;4995950;27;87902;-65
2023/09/11 07:47:47;;;;;;;3.92;2.97;;;27.80;81.00;28.40;100547.00;;;;4996360;27;87687;-66
2023/09/11 07:50:12;;;;;;;12.60;3.80;;;28.20;79.70;28.70;100562.00;;;;4988242;27;118086;-66
2023/09/11 07:52:38;;;;;;;7.78;3.40;;;28.40;78.00;29.00;100555.00;;;;4994191;28;118820;-65
2023/09/11 07:55:06;;;;;;;4.90;3.13;;;28.70;76.90;29.20;100552.00;;;;4993788;28;88050;-65
2023/09/11 07:57:33;;;;;;;4.47;3.55;;;28.90;75.40;29.50;100551.00;;;;4991300;27;87787;-67
2023/09/11 08:00:04;;;;;;;3.60;2.72;;;29.20;74.00;29.70;100559.00;;;;4967494;28;88943;-66
2023/09/11 08:02:30;;;;;;;4.38;2.97;;;29.40;72.30;29.90;100555.00;;;;4996730;28;87952;-67
2023/09/11 08:04:56;;;;;;;3.95;2.70;;;29.60;70.80;30.00;100549.00;;;;4979679;28;87770;-66
2023/09/11 08:07:22;;;;;;;4.20;3.65;;;29.80;68.40;30.20;100543.00;;;;4991231;27;101095;-66
2023/09/11 08:09:48;;;;;;;4.38;3.13;;;29.90;67.50;30.30;100534.00;;;;4989871;28;88461;-66
2023/09/11 08:12:15;;;;;;;3.22;2.75;;;30.10;65.50;30.50;100542.00;;;;4968208;28;109538;-67
2023/09/11 08:14:40;;;;;;;4.78;2.15;;;30.20;64.30;30.60;100539.00;;;;4990378;27;88862;-66
2023/09/11 08:17:06;;;;;;;4.80;2.33;;;30.30;62.80;30.60;100546.00;;;;4987904;28;87956;-66
2023/09/11 08:19:32;;;;;;;3.47;2.42;;;30.40;59.70;30.40;100541.00;;;;4986466;28;117067;-66
2023/09/11 08:21:57;;;;;;;4.13;2.60;;;30.30;59.40;30.40;100538.00;;;;4994385;28;90772;-67
2023/09/11 08:24:23;;;;;;;2.95;1.92;;;30.30;59.30;30.50;100538.00;;;;4995092;27;109543;-67
2023/09/11 08:26:49;;;;;;;3.92;2.42;;;30.30;58.70;30.60;100536.00;;;;4993075;27;106971;-67
2023/09/11 08:29:15;;;;;;;4.25;2.60;;;30.30;58.10;30.70;100531.00;;;;4977455;28;117677;-67
2023/09/11 08:31:41;;;;;;;5.18;3.28;;;30.50;58.00;30.90;100542.00;;;;4993863;28;87792;-66
2023/09/11 08:34:08;;;;;;;3.53;2.53;;;30.60;57.10;31.00;100540.00;;;;4988994;27;87849;-67
2023/09/11 08:36:33;;;;;;;3.33;2.10;;;30.70;56.20;31.10;100535.00;;;;4990909;28;87873;-67
2023/09/11 08:38:59;;;;;;;3.40;2.30;;;30.80;55.80;31.20;100534.00;;;;4995350;28;90118;-67
2023/09/11 08:41:26;;;;;;;6.32;2.67;;;30.90;55.70;31.40;100536.00;;;;4993422;27;89485;-67
2023/09/11 08:43:52;;;;;;;3.33;2.05;;;31.00;55.70;31.60;100538.00;;;;4997247;27;88018;-69
2023/09/11 08:46:18;;;;;;;4.88;2.72;;;31.20;55.40;31.90;100541.00;;;;4996676;27;104998;-68
2023/09/11 08:48:48;;;;;;;4.30;3.03;;;31.50;55.00;32.20;100535.00;;;;4997917;27;88919;-70
2023/09/11 08:51:24;;;;;;;5.15;3.15;;;31.80;54.40;32.50;100533.00;;;;4978219;28;88126;-69
2023/09/11 08:54:04;;;;;;;3.08;2.70;;;32.00;53.40;32.70;100537.00;;;;4971167;27;87878;-69
2023/09/11 08:56:31;;;;;;;7.30;3.08;;;32.30;53.20;33.00;100538.00;;;;4997216;27;86864;-69
2023/09/11 08:58:58;;;;;;;2.92;2.55;;;32.50;52.80;33.30;100538.00;;;;4972569;28;88488;-68
2023/09/11 09:01:25;;;;;;;3.72;2.45;;;32.80;52.50;33.60;100538.00;;;;4977973;28;88305;-69
2023/09/11 09:03:51;;;;;;;4.00;3.00;;;33.10;52.30;34.00;100542.00;;;;4973711;27;110071;-70
2023/09/11 09:06:18;;;;;;;3.15;2.10;;;33.40;51.70;34.30;100542.00;;;;4992919;27;109500;-70
2023/09/11 09:08:44;;;;;;;4.95;2.78;;;33.70;51.30;34.50;100534.00;;;;4975495;28;89262;-68
2023/09/11 09:11:11;;;;;;;4.95;3.08;;;34.00;50.80;34.70;100534.00;;;;4974525;28;116704;-68
2023/09/11 09:13:38;;;;;;;4.53;2.47;;;34.20;50.10;34.90;100532.00;;;;4993013;28;104818;-69
2023/09/11 09:16:04;;;;;;;3.35;2.67;;;34.40;49.60;35.10;100541.00;;;;4992188;27;88334;-68
2023/09/11 09:18:30;;;;;;;4.95;3.00;;;34.60;49.10;35.30;100530.00;;;;4993424;28;112841;-69
2023/09/11 09:20:55;;;;;;;3.53;2.65;;;34.80;48.60;35.40;100538.00;;;;4974935;28;92948;-69
2023/09/11 09:23:35;;;;;;;3.40;2.78;;;34.90;48.10;35.50;100532.00;;;;4971514;28;109050;-70
2023/09/11 09:26:07;;;;;;;2.35;2.13;;;35.10;47.80;35.80;100539.00;;;;4994625;27;88156;-70
2023/09/11 09:28:33;;;;;;;5.13;2.75;;;35.20;47.30;36.00;100536.00;;;;4995159;27;89684;-70
2023/09/11 09:30:59;;;;;;;3.58;2.53;;;35.50;46.80;36.30;100528.00;;;;4997804;27;89764;-69
2023/09/11 09:33:25;;;;;;;3.00;2.15;;;35.70;46.30;36.50;100528.00;;;;4993421;28;87927;-69
2023/09/11 09:35:51;;;;;;;5.32;2.92;;;35.90;45.60;36.70;100525.00;;;;4991510;27;87842;-69
2023/09/11 09:38:20;;;;;;;3.40;2.78;;;36.10;45.00;36.90;100526.00;;;;4992956;28;118465;-68
2023/09/11 09:40:46;;;;;;;4.57;2.22;;;36.30;44.70;37.20;100522.00;;;;4995748;28;89100;-68
2023/09/11 09:43:18;;;;;;;3.95;2.15;;;36.50;43.90;37.40;100531.00;;;;4994943;28;87802;-70
2023/09/11 09:45:45;;;;;;;4.82;2.80;;;36.70;43.30;37.60;100522.00;;;;4980866;27;87149;-68
2023/09/11 09:48:20;;;;;;;2.38;2.17;;;36.90;43.10;37.80;100519.00;;;;4991629;27;116823;-69
2023/09/11 09:50:54;;;;;;;3.55;2.53;;;37.10;42.70;38.00;100513.00;;;;4991961;27;88991;-69
2023/09/11 09:53:27;;;;;;;3.05;2.72;;;37.20;42.10;38.20;100512.00;;;;4991562;28;88847;-69
2023/09/11 09:55:56;;;;;;;3.70;2.58;;;37.40;41.60;38.30;100505.00;;;;4994543;28;88339;-69
2023/09/11 09:58:27;;;;;;;4.45;1.98;;;37.50;41.20;38.50;100503.00;;;;4994521;28;88903;-65
2023/09/11 10:01:20;;;;;;;3.10;2.50;;;37.60;40.60;38.70;100503.00;;;;4996892;27;89621;-70
2023/09/11 10:03:48;;;;;;;4.30;2.15;;;37.80;40.40;38.90;100506.00;;;;4992688;27;87985;-69
2023/09/11 10:06:23;;;;;;;2.17;1.98;;;38.00;39.60;38.90;100496.00;;;;4997664;27;88083;-69
2023/09/11 10:09:10;;;;;;;3.03;2.22;;;38.00;39.60;39.00;100491.00;;;;4994128;27;109354;-69
2023/09/11 10:11:37;;;;;;;3.95;2.63;;;38.20;38.90;39.00;100490.00;;;;4980802;28;87723;-70
2023/09/11 10:14:08;;;;;;;4.53;2.20;;;38.20;38.30;39.00;100492.00;;;;4995187;28;87901;-69
2023/09/11 10:16:34;;;;;;;3.55;2.08;;;38.20;38.30;39.00;100484.00;;;;4994659;27;99544;-70
2023/09/11 10:19:01;;;;;;;4.85;2.50;;;38.10;38.10;39.20;100484.00;;;;4995196;27;106666;-70
2023/09/11 10:21:28;;;;;;;3.83;2.28;;;38.20;38.00;39.50;100490.00;;;;4997766;27;89513;-69
2023/09/11 10:23:54;;;;;;;3.63;2.88;;;38.60;37.70;39.80;100488.00;;;;4998528;27;87699;-70
2023/09/11 10:26:45;;;;;;;2.30;1.98;;;38.80;37.10;40.00;100486.00;;;;4995451;27;108993;-69
2023/09/11 10:29:34;;;;;;;2.80;2.10;;;39.00;37.10;40.30;100476.00;;;;4980730;27;88472;-68
2023/09/11 10:32:25;;;;;;;2.92;1.73;;;39.30;36.90;40.50;100471.00;;;;4995218;28;87838;-69
2023/09/11 10:34:52;;;;;;;7.07;1.83;;;39.50;36.30;40.60;100476.00;;;;4991492;27;94686;-69
2023/09/11 10:37:21;;;;;;;2.33;1.65;;;39.80;35.90;40.80;100473.00;;;;4993305;27;86911;-69
2023/09/11 10:39:49;;;;;;;3.15;1.85;;;39.90;35.70;41.00;100471.00;;;;4990999;27;88997;-69
2023/09/11 10:42:18;;;;;;;1.98;1.70;;;40.10;35.30;41.20;100467.00;;;;4959201;28;95855;-68
2023/09/11 10:44:43;;;;;;;2.22;1.48;;;40.30;34.90;41.30;100467.00;;;;4990031;27;96404;-70